Appleton, Colorado
Current Conditions -  °F | °C
As of 5:53 PM on Saturday 25 Oct 2014 (Local Time) from KGJT Reporting Station
Clear Clear  
Wind Chill: 20°   Ceiling: Unl
Heat Index: 20°   Visibility: 10mi
Dew Point:   Wind: 5mph
Humidity: 30%   Direction: 280°W
Pressure: 30.06"   Gusts: NA
Location:  39.1857°N, 108.6°W
Report Text: KGJT 252353Z 28004KT 10SM CLR 20/02 A3006 RMK AO2 SLP140 T02000017 10250 20183 56017
Loading
Personal Weather Stations






























Interactive Weather Map
Tropical Storm Tracking
New forecast layout! Learn more

10-Day Weather Forecast

Advertisements
Track Severe Weather on mobile